Time;durP1;ratioP1;P1;durP2;ratioP2;P2;SDS_P1;SDS_P2;PMS_P1;PMS_P2;Temp;Humidity;BMP_temperature;BMP_pressure;BME280_temperature;BME280_humidity;BME280_pressure;Samples;Min_cycle;Max_cycle;Signal;HPM_P1;HPM_P2
2021/12/13 00:01:07;;;;;;;;;20.00;19.00;;;;;20.92;50.64;101688.13;109264;1279;22304;-77
2021/12/13 00:03:33;;;;;;;;;17.00;16.00;;;;;20.91;50.66;101690.31;109293;1279;20914;-74
2021/12/13 00:05:59;;;;;;;;;17.00;13.00;;;;;20.91;50.71;101693.40;109291;1280;19420;-75
2021/12/13 00:08:25;;;;;;;;;21.00;18.00;;;;;20.91;50.51;101688.52;109292;1280;20537;-76
2021/12/13 00:10:51;;;;;;;;;20.00;17.00;;;;;20.90;50.42;101688.29;109266;1279;19308;-76
2021/12/13 00:13:17;;;;;;;;;20.67;17.00;;;;;20.91;50.39;101692.92;109252;1280;23490;-76
2021/12/13 00:15:43;;;;;;;;;23.50;22.50;;;;;20.89;50.45;101689.30;109260;1279;20113;-75
2021/12/13 00:18:09;;;;;;;;;17.00;16.00;;;;;20.91;50.50;101697.83;109108;1275;126473;-76
2021/12/13 00:20:37;;;;;;;;;21.00;14.00;;;;;20.91;50.62;101700.24;109302;1279;20113;-76
2021/12/13 00:23:03;;;;;;;;;17.33;16.67;;;;;20.91;50.40;101702.02;109243;1279;19056;-74
2021/12/13 00:25:29;;;;;;;;;17.50;16.50;;;;;20.92;50.43;101697.02;109259;1279;19402;-73
2021/12/13 00:27:55;;;;;;;;;17.00;16.00;;;;;20.90;50.22;101693.88;109294;1279;19425;-73
2021/12/13 00:30:21;;;;;;;;;16.50;14.00;;;;;20.90;50.28;101694.28;109285;1279;18632;-74
2021/12/13 00:32:47;;;;;;;;;16.00;16.00;;;;;20.91;50.25;101697.15;109338;1279;19307;-76
2021/12/13 00:35:13;;;;;;;;;15.50;15.50;;;;;20.90;50.45;101695.89;109300;1279;19571;-76
2021/12/13 00:37:39;;;;;;;;;16.33;16.00;;;;;20.90;50.22;101697.70;109267;1279;18977;-75
2021/12/13 00:40:05;;;;;;;;;18.00;16.00;;;;;20.90;50.06;101700.27;109236;1279;20276;-76
2021/12/13 00:42:31;;;;;;;;;18.00;17.00;;;;;20.89;50.18;101694.01;109269;1280;19053;-75
2021/12/13 00:44:57;;;;;;;;;17.50;16.00;;;;;20.90;50.25;101697.28;109244;1280;18952;-74
2021/12/13 00:47:23;;;;;;;;;17.50;14.50;;;;;20.91;50.14;101699.66;109271;1279;19478;-76
2021/12/13 00:49:49;;;;;;;;;17.00;14.00;;;;;20.90;50.25;101700.89;109209;1279;19124;-75
2021/12/13 00:52:15;;;;;;;;;21.00;17.50;;;;;20.88;50.19;101701.36;109261;1279;18749;-75
2021/12/13 00:54:41;;;;;;;;;18.50;18.00;;;;;20.90;50.19;101708.11;109231;1279;19350;-75
2021/12/13 00:57:07;;;;;;;;;16.00;15.50;;;;;20.89;50.14;101709.13;109202;1279;18621;-76
2021/12/13 00:59:33;;;;;;;;;22.00;18.00;;;;;20.88;50.12;101706.36;109214;1279;21972;-74
2021/12/13 01:01:59;;;;;;;;;20.00;16.00;;;;;20.87;50.14;101707.27;109274;1279;21946;-75
2021/12/13 01:04:25;;;;;;;;;16.00;15.00;;;;;20.88;50.15;101712.70;109266;1279;18578;-76
2021/12/13 01:06:51;;;;;;;;;18.00;17.50;;;;;20.87;50.07;101708.92;109245;1280;19730;-76
2021/12/13 01:09:17;;;;;;;;;18.00;16.00;;;;;20.86;49.90;101704.45;109258;1280;19548;-73
2021/12/13 01:11:43;;;;;;;;;18.00;17.00;;;;;20.88;50.07;101699.61;109264;1279;18674;-74
2021/12/13 01:14:09;;;;;;;;;19.50;16.00;;;;;20.88;50.00;101705.47;109223;1279;19049;-75
2021/12/13 01:16:48;;;;;;;;;17.00;16.00;;;;;20.88;50.16;101706.26;109138;1280;19787;-75
2021/12/13 01:19:28;;;;;;;;;20.67;15.67;;;;;20.88;49.76;101710.14;109319;1279;18929;-75
2021/12/13 01:21:56;;;;;;;;;17.00;15.00;;;;;20.89;49.85;101711.65;109297;1279;20416;-74
2021/12/13 01:24:51;;;;;;;;;15.50;14.00;;;;;20.89;49.96;101720.16;109245;1279;21040;-75
2021/12/13 01:27:12;;;;;;;;;19.00;15.33;;;;;20.89;49.92;101719.96;109264;1280;20949;-76
2021/12/13 01:29:37;;;;;;;;;17.00;15.50;;;;;20.88;49.92;101716.11;109276;1280;20085;-74
2021/12/13 01:32:03;;;;;;;;;21.50;16.00;;;;;20.89;49.84;101712.81;109236;1280;21579;-75
2021/12/13 01:34:29;;;;;;;;;18.00;17.00;;;;;20.89;49.71;101710.90;109258;1280;19396;-75
2021/12/13 01:37:02;;;;;;;;;16.50;15.50;;;;;20.87;49.68;101711.30;109252;1279;19432;-74
2021/12/13 01:39:28;;;;;;;;;15.67;13.67;;;;;20.88;49.54;101715.02;109243;1280;21088;-73
2021/12/13 01:41:54;;;;;;;;;17.00;14.50;;;;;20.87;49.60;101714.79;109276;1280;22476;-75
2021/12/13 01:44:20;;;;;;;;;17.00;16.00;;;;;20.87;49.57;101715.49;109225;1279;22481;-75
2021/12/13 01:46:46;;;;;;;;;16.50;14.50;;;;;20.88;49.50;101720.11;109233;1280;20901;-75
2021/12/13 01:49:12;;;;;;;;;18.00;16.00;;;;;20.87;49.65;101714.79;109296;1281;18862;-75
2021/12/13 01:51:38;;;;;;;;;20.50;17.50;;;;;20.87;49.53;101716.23;109245;1279;23436;-75
2021/12/13 01:54:04;;;;;;;;;20.50;18.50;;;;;20.87;49.57;101723.48;109271;1280;21505;-75
2021/12/13 01:56:41;;;;;;;;;20.50;18.00;;;;;20.86;49.64;101723.70;109294;1279;18880;-75
2021/12/13 01:59:17;;;;;;;;;15.33;14.00;;;;;20.87;49.53;101718.26;109305;1281;20047;-75
2021/12/13 02:01:43;;;;;;;;;14.67;14.67;;;;;20.86;49.33;101716.28;109313;1278;19511;-74
2021/12/13 02:04:10;;;;;;;;;23.00;15.00;;;;;20.86;49.30;101711.40;109267;1280;19053;-75
2021/12/13 02:06:36;;;;;;;;;19.67;17.33;;;;;20.85;49.47;101708.56;109231;1279;20142;-75
2021/12/13 02:09:02;;;;;;;;;15.50;14.00;;;;;20.85;49.45;101707.58;109293;1279;19367;-75
2021/12/13 02:11:28;;;;;;;;;19.00;15.50;;;;;20.86;49.34;101713.59;109281;1280;21193;-74
2021/12/13 02:14:06;;;;;;;;;14.50;13.00;;;;;20.86;49.40;101708.30;109293;1279;18716;-75
2021/12/13 02:19:16;;;;;;;;;19.00;13.67;;;;;20.86;48.98;101708.52;109269;1279;19496;-75
2021/12/13 02:21:42;;;;;;;;;16.00;12.00;;;;;20.86;49.12;101712.84;109286;1280;18770;-75
2021/12/13 02:24:08;;;;;;;;;14.00;13.00;;;;;20.86;49.29;101708.51;109281;1279;20272;-75
2021/12/13 02:26:34;;;;;;;;;14.00;13.00;;;;;20.86;49.11;101708.91;109272;1280;18573;-76
2021/12/13 02:29:00;;;;;;;;;21.00;14.00;;;;;20.86;49.11;101712.86;109241;1280;18658;-76
2021/12/13 02:31:26;;;;;;;;;20.00;16.00;;;;;20.87;49.06;101712.23;109293;1279;19288;-76
2021/12/13 02:33:52;;;;;;;;;15.33;11.33;;;;;20.87;48.99;101709.67;109296;1279;23134;-75
2021/12/13 02:36:18;;;;;;;;;19.00;14.00;;;;;20.86;49.07;101708.34;109261;1279;21892;-75
2021/12/13 02:38:46;;;;;;;;;16.00;13.00;;;;;20.85;49.04;101704.79;109244;1279;22089;-74
2021/12/13 02:41:12;;;;;;;;;16.00;13.00;;;;;20.85;49.03;101704.79;109279;1279;19728;-76
2021/12/13 02:43:38;;;;;;;;;15.50;13.50;;;;;20.86;48.93;101707.17;109233;1280;18554;-74
2021/12/13 02:46:04;;;;;;;;;17.00;16.00;;;;;20.87;48.83;101710.41;109225;1279;23790;-74
2021/12/13 02:48:30;;;;;;;;;16.00;13.00;;;;;20.86;48.90;101707.95;109262;1278;22521;-74
2021/12/13 02:50:56;;;;;;;;;13.50;12.50;;;;;20.85;48.84;101707.14;109255;1281;20359;-74
2021/12/13 02:53:21;;;;;;;;;16.00;13.50;;;;;20.84;48.81;101702.73;109257;1279;19936;-74
2021/12/13 02:55:47;;;;;;;;;16.50;14.00;;;;;20.84;48.81;101701.78;109252;1279;19404;-74
2021/12/13 02:58:13;;;;;;;;;13.50;13.00;;;;;20.85;48.79;101702.27;109222;1279;18714;-74
2021/12/13 03:00:39;;;;;;;;;16.00;14.50;;;;;20.85;48.74;101706.98;109238;1280;19385;-75
2021/12/13 03:03:05;;;;;;;;;14.50;13.00;;;;;20.85;48.87;101704.65;109250;1279;19495;-74
2021/12/13 03:05:31;;;;;;;;;13.00;12.00;;;;;20.84;48.66;101698.92;109207;1279;22795;-73
2021/12/13 03:07:57;;;;;;;;;14.00;13.50;;;;;20.83;48.75;101703.89;109239;1279;19545;-74
2021/12/13 03:10:23;;;;;;;;;16.50;14.00;;;;;20.83;48.55;101705.15;109264;1279;19217;-74
2021/12/13 03:12:49;;;;;;;;;16.00;14.00;;;;;20.84;48.70;101703.27;109242;1281;18760;-74
2021/12/13 03:15:15;;;;;;;;;11.00;10.00;;;;;20.85;48.53;101704.23;109268;1279;19883;-74
2021/12/13 03:17:41;;;;;;;;;14.50;12.00;;;;;20.85;48.71;101703.15;109288;1281;18611;-73
2021/12/13 03:20:07;;;;;;;;;14.50;13.00;;;;;20.85;48.49;101701.14;109271;1279;18976;-74
2021/12/13 03:22:33;;;;;;;;;17.00;14.00;;;;;20.85;48.43;101703.32;109252;1279;19898;-74
2021/12/13 03:24:59;;;;;;;;;14.50;12.00;;;;;20.85;48.55;101702.40;109261;1279;18842;-74
2021/12/13 03:27:25;;;;;;;;;17.00;14.00;;;;;20.85;48.53;101699.85;109249;1279;18630;-75
2021/12/13 03:29:52;;;;;;;;;19.50;14.00;;;;;20.85;48.50;101700.23;109300;1280;19250;-74
2021/12/13 03:32:18;;;;;;;;;14.33;13.33;;;;;20.85;48.51;101701.72;109251;1279;18915;-74
2021/12/13 03:34:43;;;;;;;;;13.00;12.00;;;;;20.85;48.33;101700.11;109232;1280;21507;-74
2021/12/13 03:37:09;;;;;;;;;14.00;12.50;;;;;20.86;48.16;101702.31;109296;1279;20160;-74
2021/12/13 03:39:35;;;;;;;;;13.50;13.50;;;;;20.85;48.16;101704.41;109274;1279;20243;-75
2021/12/13 03:42:01;;;;;;;;;14.00;13.00;;;;;20.85;48.37;101707.52;109237;1279;22363;-73
2021/12/13 03:44:27;;;;;;;;;13.50;13.50;;;;;20.85;48.28;101708.77;109249;1279;22438;-74
2021/12/13 03:46:53;;;;;;;;;18.00;16.00;;;;;20.85;48.11;101709.66;109248;1279;20298;-74
2021/12/13 03:49:19;;;;;;;;;14.00;13.00;;;;;20.85;48.13;101709.86;109264;1279;18639;-74
2021/12/13 03:51:45;;;;;;;;;13.00;12.00;;;;;20.85;48.13;101709.73;109262;1279;19942;-74
2021/12/13 03:54:11;;;;;;;;;15.00;12.00;;;;;20.85;48.35;101708.80;109288;1280;18742;-74
2021/12/13 03:56:37;;;;;;;;;12.00;10.00;;;;;20.84;48.16;101705.40;109291;1280;18547;-74
2021/12/13 03:59:03;;;;;;;;;16.50;12.00;;;;;20.85;48.30;101704.85;109268;1279;19357;-74
2021/12/13 04:01:29;;;;;;;;;14.00;12.00;;;;;20.84;48.21;101704.67;109245;1279;22043;-74
2021/12/13 04:03:55;;;;;;;;;12.00;12.00;;;;;20.84;48.07;101706.35;109246;1281;18969;-74
2021/12/13 04:06:21;;;;;;;;;16.50;16.00;;;;;20.83;48.00;101705.15;109266;1281;19358;-74
2021/12/13 04:08:46;;;;;;;;;14.00;13.00;;;;;20.84;48.15;101706.20;109283;1280;18782;-74
2021/12/13 04:11:12;;;;;;;;;11.00;10.00;;;;;20.83;47.95;101704.84;109270;1280;18654;-74
2021/12/13 04:13:38;;;;;;;;;16.00;14.00;;;;;20.83;48.03;101706.45;109245;1279;19413;-73
2021/12/13 04:16:11;;;;;;;;;16.00;13.00;;;;;20.84;47.88;101712.38;109267;1280;20748;-74
2021/12/13 04:21:23;;;;;;;;;12.33;10.67;;;;;20.84;47.71;101712.92;109257;1280;23326;-74
2021/12/13 04:23:49;;;;;;;;;13.00;11.00;;;;;20.85;47.83;101718.61;109268;1280;19094;-74
2021/12/13 04:26:15;;;;;;;;;13.00;10.00;;;;;20.85;47.93;101721.17;109304;1280;18607;-74
2021/12/13 04:28:41;;;;;;;;;12.50;12.00;;;;;20.85;47.79;101724.93;109350;1279;19327;-74
2021/12/13 04:31:07;;;;;;;;;11.00;10.00;;;;;20.85;47.86;101727.13;109304;1279;18597;-74
2021/12/13 04:33:33;;;;;;;;;13.00;13.00;;;;;20.84;47.84;101723.55;109254;1279;20245;-74
2021/12/13 04:35:59;;;;;;;;;15.00;12.50;;;;;20.85;47.69;101729.48;109280;1279;20865;-74
2021/12/13 04:38:25;;;;;;;;;13.00;13.00;;;;;20.85;47.74;101730.55;109253;1279;19096;-74
2021/12/13 04:40:51;;;;;;;;;13.67;13.00;;;;;20.85;47.80;101726.11;109307;1280;20459;-74
2021/12/13 04:43:17;;;;;;;;;12.00;10.00;;;;;20.85;47.78;101730.80;109298;1280;19792;-74
2021/12/13 04:45:43;;;;;;;;;12.00;11.33;;;;;20.85;47.69;101729.89;109261;1279;23278;-74
2021/12/13 04:48:09;;;;;;;;;13.00;10.00;;;;;20.85;47.70;101727.71;109277;1279;20230;-74
2021/12/13 04:50:35;;;;;;;;;14.00;13.00;;;;;20.85;47.71;101729.20;109261;1279;19674;-74
2021/12/13 04:53:01;;;;;;;;;12.00;12.00;;;;;20.84;47.59;101724.71;109283;1279;18804;-74
2021/12/13 04:55:27;;;;;;;;;13.50;11.00;;;;;20.85;47.63;101721.85;109250;1280;22384;-74
2021/12/13 04:57:53;;;;;;;;;12.00;12.00;;;;;20.83;47.47;101715.40;109263;1280;21413;-74
2021/12/13 05:00:19;;;;;;;;;13.00;13.00;;;;;20.84;47.59;101723.08;109341;1279;18898;-74
2021/12/13 05:02:45;;;;;;;;;10.00;10.00;;;;;20.83;47.53;101718.64;109308;1279;19148;-74
2021/12/13 05:05:12;;;;;;;;;12.00;10.00;;;;;20.83;47.66;101717.95;109304;1279;19799;-74
2021/12/13 05:07:38;;;;;;;;;13.00;12.00;;;;;20.84;47.43;101720.68;109298;1279;18905;-73
2021/12/13 05:10:04;;;;;;;;;13.00;10.00;;;;;20.83;47.46;101714.59;109220;1279;19156;-74
2021/12/13 05:12:29;;;;;;;;;12.50;10.00;;;;;20.84;47.39;101721.40;109259;1279;19497;-74
2021/12/13 05:14:55;;;;;;;;;14.50;10.00;;;;;20.83;47.57;101723.30;109246;1280;18555;-74
2021/12/13 05:17:21;;;;;;;;;16.00;13.00;;;;;20.84;47.31;101730.36;109237;1279;18809;-75
2021/12/13 05:19:47;;;;;;;;;13.00;12.00;;;;;20.83;47.41;101728.27;109258;1279;22340;-76
2021/12/13 05:22:13;;;;;;;;;13.00;12.00;;;;;20.84;47.50;101730.36;109250;1279;22803;-76
2021/12/13 05:24:39;;;;;;;;;13.00;12.00;;;;;20.83;47.41;101733.36;109263;1279;18593;-77
2021/12/13 05:27:07;;;;;;;;;12.00;10.00;;;;;20.83;47.46;101735.84;109224;1279;19351;-76
2021/12/13 05:29:33;;;;;;;;;13.33;12.67;;;;;20.81;47.40;101730.43;109215;1279;19640;-74
2021/12/13 05:31:58;;;;;;;;;14.00;13.00;;;;;20.83;47.40;101736.61;109269;1279;19078;-76
2021/12/13 05:34:25;;;;;;;;;14.00;12.00;;;;;20.83;47.18;101741.88;109246;1279;19375;-75
2021/12/13 05:36:51;;;;;;;;;14.00;13.33;;;;;20.84;47.28;101749.64;109224;1279;18788;-76
2021/12/13 05:39:17;;;;;;;;;16.00;13.00;;;;;20.84;47.12;101750.83;109198;1279;18660;-74
2021/12/13 05:41:43;;;;;;;;;12.00;10.00;;;;;20.86;47.09;101754.28;109214;1279;19981;-73
2021/12/13 05:44:09;;;;;;;;;10.00;10.00;;;;;20.87;47.11;101757.08;109181;1279;18730;-74
2021/12/13 05:46:35;;;;;;;;;12.50;12.00;;;;;20.89;46.96;101763.77;109210;1279;18797;-76
2021/12/13 05:49:01;;;;;;;;;12.00;10.00;;;;;20.89;47.10;101764.17;109154;1280;19305;-74
2021/12/13 05:51:27;;;;;;;;;12.00;11.00;;;;;20.88;47.19;101759.87;109214;1279;19206;-75
2021/12/13 05:53:53;;;;;;;;;14.00;12.00;;;;;20.89;47.14;101763.42;109218;1279;24581;-75
2021/12/13 05:56:19;;;;;;;;;9.50;8.50;;;;;20.91;47.05;101764.80;109220;1280;19376;-75
2021/12/13 05:58:45;;;;;;;;;14.00;12.50;;;;;20.92;47.06;101760.45;109221;1279;20109;-75
2021/12/13 06:01:12;;;;;;;;;10.00;10.00;;;;;20.93;47.00;101759.94;109229;1279;18679;-76
2021/12/13 06:03:38;;;;;;;;;12.00;10.00;;;;;20.95;47.10;101764.08;109235;1280;21858;-75
2021/12/13 06:06:04;;;;;;;;;16.00;13.00;;;;;20.94;46.98;101766.16;109218;1280;19180;-75
2021/12/13 06:08:30;;;;;;;;;9.50;8.50;;;;;20.97;47.08;101768.21;109244;1279;18780;-75
2021/12/13 06:10:57;;;;;;;;;13.50;12.00;;;;;20.98;47.39;101765.98;109225;1280;19406;-74
2021/12/13 06:13:23;;;;;;;;;13.00;10.67;;;;;20.99;47.43;101772.64;109291;1279;18676;-74
2021/12/13 06:15:50;;;;;;;;;10.00;10.00;;;;;21.01;47.36;101774.08;109220;1279;18667;-74
2021/12/13 06:18:16;;;;;;;;;13.67;12.67;;;;;21.01;47.35;101775.60;109201;1279;23112;-74
2021/12/13 06:20:42;;;;;;;;;12.00;12.00;;;;;21.02;47.53;101776.45;109210;1279;18934;-76
2021/12/13 06:23:08;;;;;;;;;10.00;9.00;;;;;21.02;47.47;101772.88;109206;1279;22385;-75
2021/12/13 06:25:34;;;;;;;;;16.50;13.50;;;;;21.02;47.49;101779.14;109157;1280;22852;-75
2021/12/13 06:28:00;;;;;;;;;10.00;10.00;;;;;21.00;47.60;101781.55;109228;1279;23241;-76
2021/12/13 06:30:26;;;;;;;;;17.00;14.00;;;;;21.04;47.77;101778.68;109224;1279;18726;-76
2021/12/13 06:32:53;;;;;;;;;35.00;29.00;;;;;21.08;47.76;101773.11;109200;1279;19923;-77
2021/12/13 06:35:19;;;;;;;;;50.33;39.00;;;;;21.13;47.32;101777.80;109236;1279;19101;-74
2021/12/13 06:37:45;;;;;;;;;81.50;57.50;;;;;21.15;47.46;101773.18;109212;1279;18677;-75
2021/12/13 06:40:11;;;;;;;;;94.67;64.00;;;;;21.16;47.41;101770.20;109229;1278;19602;-75
2021/12/13 06:42:37;;;;;;;;;108.33;79.67;;;;;21.17;47.48;101772.99;109172;1279;18576;-75
2021/12/13 06:45:03;;;;;;;;;95.33;69.33;;;;;21.22;47.61;101777.78;109141;1279;19132;-76
2021/12/13 06:47:29;;;;;;;;;95.67;67.33;;;;;21.26;47.32;101785.33;109219;1279;19631;-74
2021/12/13 06:49:55;;;;;;;;;92.33;68.67;;;;;21.29;47.79;101787.92;109270;1278;18668;-76
2021/12/13 06:52:21;;;;;;;;;92.67;65.67;;;;;21.28;47.81;101793.86;109170;1280;19046;-76
2021/12/13 06:54:47;;;;;;;;;90.00;63.00;;;;;21.28;48.03;101791.23;109267;1279;19448;-75
2021/12/13 06:57:13;;;;;;;;;89.67;66.33;;;;;21.30;48.33;101790.74;109265;1280;19257;-75
2021/12/13 06:59:39;;;;;;;;;92.67;63.67;;;;;21.30;48.30;101794.80;109118;1279;19306;-74
2021/12/13 07:02:05;;;;;;;;;81.33;60.33;;;;;21.31;48.41;101793.35;109199;1279;19337;-74
2021/12/13 07:04:31;;;;;;;;;84.67;60.33;;;;;21.31;48.30;101793.35;109265;1279;18769;-75
2021/12/13 07:06:57;;;;;;;;;79.00;61.00;;;;;21.32;48.38;101797.98;109248;1280;19291;-75
2021/12/13 07:09:22;;;;;;;;;87.67;61.33;;;;;21.32;48.41;101802.59;109277;1279;19993;-74
2021/12/13 07:11:48;;;;;;;;;82.00;59.67;;;;;21.32;48.91;101802.39;109202;1280;22940;-75
2021/12/13 07:14:14;;;;;;;;;76.00;55.00;;;;;21.35;49.15;101804.46;109252;1279;18677;-74
2021/12/13 07:16:40;;;;;;;;;80.33;58.33;;;;;21.38;49.14;101800.64;109281;1279;22918;-74
2021/12/13 07:19:07;;;;;;;;;75.67;53.00;;;;;21.39;48.97;101803.14;109273;1279;20452;-74
2021/12/13 07:21:33;;;;;;;;;67.00;51.00;;;;;21.38;48.81;101802.65;109211;1280;19605;-74
2021/12/13 07:24:00;;;;;;;;;71.00;52.50;;;;;21.40;49.11;101808.85;109217;1279;19953;-73
2021/12/13 07:26:26;;;;;;;;;68.67;52.00;;;;;21.36;49.29;101808.75;109233;1280;20482;-74
2021/12/13 07:28:52;;;;;;;;;61.67;48.00;;;;;21.38;49.22;101812.48;109236;1280;19132;-73
2021/12/13 07:31:18;;;;;;;;;64.00;49.00;;;;;21.40;48.95;101811.75;109234;1279;20211;-74
2021/12/13 07:33:44;;;;;;;;;65.00;48.00;;;;;21.40;49.17;101813.08;109209;1279;22858;-73
2021/12/13 07:36:10;;;;;;;;;63.67;47.33;;;;;21.35;49.47;101819.02;109248;1281;20198;-75
2021/12/13 07:38:36;;;;;;;;;64.50;48.00;;;;;21.30;49.49;101826.77;109250;1279;20043;-74
2021/12/13 07:41:03;;;;;;;;;64.00;47.33;;;;;21.31;49.40;101834.23;109238;1279;19954;-74
2021/12/13 07:43:29;;;;;;;;;65.00;48.33;;;;;21.43;49.16;101837.75;109227;1279;22172;-74
2021/12/13 07:45:55;;;;;;;;;59.67;45.67;;;;;21.38;49.27;101844.86;109137;1280;19351;-74
2021/12/13 07:48:21;;;;;;;;;53.50;43.50;;;;;21.40;49.18;101843.96;109075;1279;18738;-74
2021/12/13 07:50:47;;;;;;;;;60.00;46.00;;;;;21.41;49.08;101844.77;109085;1279;18851;-74
2021/12/13 07:53:13;;;;;;;;;59.67;44.33;;;;;21.43;49.17;101842.36;109104;1280;19472;-75
2021/12/13 07:55:39;;;;;;;;;59.00;46.00;;;;;21.43;49.25;101838.54;109092;1280;18879;-74
2021/12/13 07:58:05;;;;;;;;;60.33;47.00;;;;;21.44;49.34;101837.48;109183;1279;18697;-75
2021/12/13 08:00:31;;;;;;;;;57.00;44.00;;;;;21.44;49.18;101837.92;109153;1278;19560;-77
2021/12/13 08:02:57;;;;;;;;;51.50;42.00;;;;;21.44;49.29;101838.79;109241;1279;23946;-76
2021/12/13 08:05:22;;;;;;;;;57.00;42.00;;;;;21.44;49.45;101838.85;109274;1279;18654;-75
2021/12/13 08:07:48;;;;;;;;;50.00;40.33;;;;;21.38;49.10;101843.92;109279;1279;19323;-75
2021/12/13 08:10:14;;;;;;;;;53.00;40.50;;;;;21.33;48.87;101843.00;109199;1279;18658;-75
2021/12/13 08:12:40;;;;;;;;;56.00;43.00;;;;;21.25;48.27;101842.30;109236;1281;18777;-76
2021/12/13 08:15:06;;;;;;;;;53.50;40.00;;;;;21.17;47.52;101845.88;109239;1279;23088;-75
2021/12/13 08:17:32;;;;;;;;;54.50;39.50;;;;;21.12;46.68;101843.31;109092;1275;131188;-75
2021/12/13 08:19:58;;;;;;;;;47.50;40.00;;;;;21.08;46.37;101835.98;109131;1279;20915;-76
2021/12/13 08:22:28;;;;;;;;;45.67;39.33;;;;;21.12;46.44;101834.77;109082;1279;20825;-76
2021/12/13 08:24:54;;;;;;;;;47.67;40.00;;;;;21.20;46.55;101837.23;109322;1278;20554;-76
2021/12/13 08:27:20;;;;;;;;;47.00;38.00;;;;;21.28;46.46;101833.35;109251;1279;18859;-76
2021/12/13 08:29:46;;;;;;;;;51.00;37.50;;;;;21.33;46.60;101832.30;109222;1280;24339;-75
2021/12/13 08:32:12;;;;;;;;;43.00;40.00;;;;;21.38;47.55;101838.35;109240;1279;19230;-80
2021/12/13 08:34:38;;;;;;;;;43.00;36.00;;;;;21.43;48.15;101844.78;109304;1279;19406;-76
2021/12/13 08:37:04;;;;;;;;;46.00;37.00;;;;;21.43;48.49;101844.41;109267;1279;19347;-77
2021/12/13 08:39:30;;;;;;;;;42.00;33.50;;;;;21.44;48.58;101847.52;109210;1279;22581;-76
2021/12/13 08:41:56;;;;;;;;;49.00;38.00;;;;;21.47;49.07;101849.60;109245;1279;20147;-76
2021/12/13 08:44:22;;;;;;;;;39.50;33.50;;;;;21.49;49.35;101859.61;109269;1280;19340;-75
2021/12/13 08:46:48;;;;;;;;;47.00;36.50;;;;;21.53;50.67;101866.78;109272;1281;18616;-75
2021/12/13 08:49:14;;;;;;;;;44.50;36.50;;;;;21.54;52.80;101868.77;109257;1278;18810;-76
2021/12/13 08:51:39;;;;;;;;;38.50;36.00;;;;;21.55;53.25;101873.52;109237;1280;19356;-75
2021/12/13 08:54:06;;;;;;;;;39.50;36.50;;;;;21.55;52.54;101875.48;109245;1279;18916;-75
2021/12/13 08:56:32;;;;;;;;;37.00;30.67;;;;;21.55;52.42;101873.34;109271;1279;19047;-75
2021/12/13 08:58:59;;;;;;;;;42.00;34.50;;;;;21.53;51.32;101877.52;109071;1281;19361;-76
2021/12/13 09:01:26;;;;;;;;;40.00;35.67;;;;;21.53;51.65;101879.48;109234;1280;18760;-77
2021/12/13 09:03:52;;;;;;;;;39.00;33.67;;;;;21.54;51.51;101879.27;109235;1279;22262;-77
2021/12/13 09:06:18;;;;;;;;;41.50;34.00;;;;;21.55;51.35;101886.64;109230;1279;19998;-77
2021/12/13 09:08:44;;;;;;;;;40.67;35.67;;;;;21.49;50.84;101885.93;109231;1281;19482;-77
2021/12/13 09:11:10;;;;;;;;;42.00;35.50;;;;;21.47;51.46;101885.75;109252;1280;19272;-77
2021/12/13 09:13:36;;;;;;;;;43.00;36.50;;;;;21.48;51.24;101887.70;109223;1280;19351;-75
2021/12/13 09:16:02;;;;;;;;;40.67;32.67;;;;;21.47;50.98;101887.21;109293;1280;18829;-77
2021/12/13 09:18:28;;;;;;;;;39.00;33.50;;;;;21.48;50.80;101891.00;109259;1279;18771;-76
2021/12/13 09:20:54;;;;;;;;;33.50;29.00;;;;;21.49;50.57;101892.65;109280;1279;21190;-76
2021/12/13 09:23:20;;;;;;;;;35.00;30.00;;;;;21.51;50.63;101897.88;109259;1279;18702;-76
2021/12/13 09:25:46;;;;;;;;;39.00;32.00;;;;;21.52;50.47;101897.48;109260;1279;18771;-76
2021/12/13 09:28:12;;;;;;;;;39.67;32.00;;;;;21.52;50.69;101897.11;109280;1279;19509;-75
2021/12/13 09:30:38;;;;;;;;;35.00;32.50;;;;;21.52;50.66;101896.34;109230;1280;18747;-76
2021/12/13 09:33:06;;;;;;;;;33.50;30.50;;;;;21.52;50.63;101893.30;109255;1280;18831;-74
2021/12/13 09:35:32;;;;;;;;;39.00;32.33;;;;;21.53;50.44;101892.64;109247;1280;21133;-75
2021/12/13 09:37:58;;;;;;;;;36.50;33.00;;;;;21.52;50.15;101892.58;109243;1279;18756;-75
2021/12/13 09:40:24;;;;;;;;;36.50;32.00;;;;;21.50;49.97;101888.38;109232;1279;22460;-75
2021/12/13 09:42:50;;;;;;;;;40.00;32.00;;;;;21.53;49.90;101890.42;109206;1280;19485;-74
2021/12/13 09:45:16;;;;;;;;;31.50;28.00;;;;;21.52;50.02;101890.91;109256;1280;19312;-76
2021/12/13 09:47:42;;;;;;;;;33.00;29.00;;;;;21.52;50.17;101888.86;109258;1279;18624;-76
2021/12/13 09:50:08;;;;;;;;;30.00;28.67;;;;;21.52;50.06;101890.53;109253;1280;19572;-75
2021/12/13 09:52:34;;;;;;;;;33.50;31.50;;;;;21.50;50.30;101889.68;109250;1279;19917;-76
2021/12/13 09:55:00;;;;;;;;;37.67;30.00;;;;;21.48;50.00;101888.82;109266;1280;19024;-76
2021/12/13 09:57:26;;;;;;;;;37.00;30.50;;;;;21.46;50.34;101888.98;109267;1280;19376;-75
2021/12/13 09:59:52;;;;;;;;;31.00;28.50;;;;;21.41;50.32;101886.77;109277;1280;18636;-75
2021/12/13 10:02:19;;;;;;;;;33.50;27.00;;;;;21.39;50.50;101893.38;109229;1279;18628;-75
2021/12/13 10:04:45;;;;;;;;;32.00;28.00;;;;;21.36;50.66;101894.52;109228;1278;20131;-76
2021/12/13 10:07:11;;;;;;;;;34.00;29.00;;;;;21.34;50.43;101898.20;109174;1280;18613;-76
2021/12/13 10:09:37;;;;;;;;;33.00;28.00;;;;;21.34;50.42;101896.33;109223;1279;18824;-73
2021/12/13 10:12:03;;;;;;;;;34.50;27.50;;;;;21.36;50.24;101894.03;109181;1279;19919;-75
2021/12/13 10:14:29;;;;;;;;;34.00;28.50;;;;;21.34;50.33;101901.06;109238;1279;21252;-76
2021/12/13 10:16:55;;;;;;;;;32.00;29.00;;;;;21.34;50.12;101902.36;109213;1280;18899;-75
2021/12/13 10:19:21;;;;;;;;;32.00;29.00;;;;;21.33;50.21;101899.52;109215;1280;21083;-75
2021/12/13 10:21:47;;;;;;;;;27.00;24.50;;;;;21.31;50.01;101894.32;109243;1279;18660;-79
2021/12/13 10:24:13;;;;;;;;;32.00;25.00;;;;;21.30;50.06;101889.34;109237;1279;18760;-76
2021/12/13 10:26:39;;;;;;;;;26.00;22.50;;;;;21.36;49.89;101889.83;109266;1280;21289;-76
2021/12/13 10:29:05;;;;;;;;;29.50;23.00;;;;;21.40;49.67;101881.91;109279;1278;18691;-75
2021/12/13 10:31:32;;;;;;;;;24.00;22.00;;;;;21.43;49.64;101883.14;109206;1280;22329;-76
2021/12/13 10:33:58;;;;;;;;;27.67;25.33;;;;;21.46;49.61;101886.43;109227;1279;22261;-75
2021/12/13 10:36:27;;;;;;;;;27.50;24.00;;;;;21.47;49.61;101886.17;109195;1279;24348;-75
2021/12/13 10:38:53;;;;;;;;;28.50;25.50;;;;;21.46;49.54;101885.48;109169;1279;22946;-74
2021/12/13 10:41:19;;;;;;;;;33.00;26.00;;;;;21.45;49.29;101886.35;109148;1279;19523;-74
2021/12/13 10:43:45;;;;;;;;;28.00;27.00;;;;;21.39;49.40;101885.89;109226;1279;19296;-73
2021/12/13 10:46:12;;;;;;;;;37.00;27.00;;;;;21.35;49.63;101886.63;109238;1279;18624;-74
2021/12/13 10:48:44;;;;;;;;;28.67;24.33;;;;;21.32;49.56;101879.12;109240;1279;19484;-74
2021/12/13 10:51:10;;;;;;;;;31.67;28.67;;;;;21.30;49.60;101875.30;109218;1279;19901;-74
2021/12/13 10:53:36;;;;;;;;;30.00;24.00;;;;;21.28;49.51;101874.08;109199;1279;19030;-74
2021/12/13 10:56:02;;;;;;;;;28.00;24.50;;;;;21.28;49.42;101876.78;109229;1279;20099;-74
2021/12/13 10:58:29;;;;;;;;;26.50;25.00;;;;;21.27;49.51;101876.27;109231;1278;18786;-74
2021/12/13 11:00:55;;;;;;;;;27.00;24.67;;;;;21.26;49.27;101874.70;109247;1279;23507;-74
2021/12/13 11:03:20;;;;;;;;;28.00;24.00;;;;;21.27;49.35;101877.94;109267;1279;19666;-74